Date,TemperatureHighF,TemperatureAvgF,TemperatureLowF,DewpointHighF,DewpointAvgF,DewpointLowF,HumidityHigh,HumidityAvg,HumidityLow,PressureMaxIn,PressureMinIn,WindSpeedMaxMPH,WindSpeedAvgMPH,GustSpeedMaxMPH,PrecipitationSumIn
2013-1-1,19,12,3,18,11,3,98,96,92,29.07,28.87,9,2,0,0.00
2013-1-2,34,24,11,33,23,11,99,97,94,28.98,28.80,8,3,0,0.00
2013-1-3,31,24,17,30,23,17,98,96,94,29.18,28.98,13,6,0,0.00
2013-1-4,29,20,14,26,19,14,100,96,90,29.07,28.90,11,4,0,0.00
2013-1-5,32,23,16,30,22,16,100,96,90,28.97,28.77,15,6,0,0.00
2013-1-6,30,22,13,28,22,13,100,96,92,29.08,28.88,16,4,0,0.00
2013-1-7,37,31,19,35,30,19,100,94,90,28.88,28.73,17,5,0,0.00
2013-1-8,36,27,15,34,26,15,100,97,93,28.88,28.61,15,3,0,0.00
2013-1-9,40,31,22,37,30,22,100,96,88,29.18,28.88,9,1,0,0.00
2013-1-10,39,35,28,37,34,28,100,96,82,29.10,28.46,13,4,0,0.00
2013-1-11,49,39,27,49,39,26,100,100,94,28.49,28.17,24,6,0,0.00
2013-1-12,33,19,12,31,17,10,94,89,83,28.91,28.49,24,10,0,0.00
2013-1-13,21,14,8,16,11,7,95,90,79,29.08,28.90,14,6,0,0.00
2013-1-14,27,17,8,22,15,8,98,92,78,29.21,29.08,8,2,0,0.00
2013-1-15,34,23,14,30,21,14,99,92,83,29.10,28.82,12,5,0,0.00
2013-1-16,51,35,22,43,32,21,97,90,72,29.00,28.68,11,6,0,0.00
2013-1-17,34,29,25,33,29,25,100,100,96,29.21,29.00,6,0,0,0.00
2013-1-18,47,37,29,41,35,29,100,92,80,29.05,28.66,16,6,0,0.00
2013-1-19,52,38,23,43,35,21,98,88,71,29.11,28.64,16,6,0,0.00
2013-1-20,23,18,14,21,15,13,96,90,82,29.18,29.08,13,4,0,0.00
2013-1-21,16,11,6,15,7,2,96,83,75,29.21,29.11,15,6,0,0.00
2013-1-22,20,14,10,18,13,8,98,95,87,29.13,29.00,8,3,0,0.00
2013-1-23,29,18,11,26,17,9,98,94,86,29.26,28.91,13,5,0,0.00
2013-1-24,19,10,3,15,7,1,92,87,79,29.30,28.94,15,8,0,0.00
2013-1-25,47,28,14,38,25,13,96,87,69,29.00,28.87,10,2,0,0.00
2013-1-26,48,31,19,39,28,18,97,88,70,29.01,28.77,18,8,0,0.00
2013-1-27,41,38,36,41,38,34,100,97,84,28.77,28.48,17,6,0,0.00
2013-1-28,42,38,35,42,38,35,100,100,100,28.64,28.35,5,0,0,0.00
2013-1-29,39,34,33,39,34,32,100,99,95,28.49,28.35,14,8,0,0.00
2013-1-30,33,23,16,32,22,15,100,95,90,28.70,28.43,18,9,0,0.00
2013-1-31,10,6,2,6,4,0,92,89,84,29.18,28.85,19,12,0,0.00
2013-2-1,28,14,0,26,12,-1,96,93,91,29.18,28.81,16,8,0,0.00
2013-2-2,39,30,25,37,29,24,98,95,90,28.96,28.81,12,4,0,0.00
2013-2-3,42,33,23,37,30,22,95,91,78,28.98,28.56,18,6,0,0.00
2013-2-4,38,28,23,36,27,23,99,97,91,28.80,28.56,13,5,0,0.00
2013-2-5,49,34,26,41,32,26,100,93,66,28.83,28.60,13,4,0,0.00
2013-2-6,52,40,31,47,38,31,99,91,82,28.84,28.61,17,5,0,0.00
2013-2-7,39,34,30,38,33,29,99,97,94,29.01,28.66,17,8,0,0.00
2013-2-8,33,29,25,32,28,25,100,97,94,29.09,28.89,16,7,0,0.00
2013-2-9,48,38,29,44,36,29,100,95,86,28.91,28.45,20,14,0,0.00
2013-2-10,44,37,31,44,36,29,100,96,92,28.57,28.06,20,14,0,0.00
2013-2-11,34,30,25,31,28,25,98,92,87,28.91,28.57,20,9,0,0.00
2013-2-12,48,31,22,37,28,22,100,89,56,28.91,28.67,14,4,0,0.00
2013-2-13,52,36,26,40,32,25,98,87,62,28.69,28.50,13,3,0,0.00
2013-2-14,44,36,22,39,33,21,100,90,70,29.05,28.56,21,8,0,0.00
2013-2-15,31,23,15,28,21,14,100,94,80,29.12,29.04,12,4,0,0.00
2013-2-16,34,24,12,32,23,12,100,97,92,29.10,28.78,11,5,0,0.00
2013-2-17,52,37,26,45,34,25,97,89,76,28.78,28.35,18,9,0,0.00
2013-2-18,46,32,22,41,30,21,100,92,82,28.83,28.35,26,10,0,0.00
2013-2-19,25,15,10,22,12,8,94,87,61,29.13,28.83,17,10,0,0.00
2013-2-20,25,14,5,18,10,3,95,86,73,29.14,28.96,11,6,0,0.00
2013-2-21,25,22,21,23,20,17,100,91,79,29.00,28.63,19,10,0,0.00
2013-2-22,22,19,12,22,18,12,100,97,93,28.80,28.63,11,6,0,0.00
2013-2-23,35,20,7,33,19,7,100,97,90,28.78,28.59,13,4,0,0.00
2013-2-24,38,30,23,35,29,23,99,95,87,28.85,28.65,11,3,0,0.00
2013-2-25,34,29,25,32,28,25,100,98,93,28.85,28.69,11,5,0,0.00
2013-2-26,32,28,24,31,28,24,100,99,96,28.73,28.58,13,8,0,0.00
2013-2-27,37,30,24,33,28,23,99,94,82,28.87,28.68,24,13,0,0.00
2013-2-28,32,28,25,30,27,24,98,96,93,29.00,28.87,17,10,0,0.00
2013-3-1,29,26,24,27,24,22,98,93,87,29.12,28.99,17,8,0,0.00
2013-3-2,35,26,14,32,24,14,99,92,82,29.11,28.86,11,3,0,0.00
2013-3-3,39,33,27,37,31,26,98,94,90,28.86,28.49,14,10,0,0.00
2013-3-4,39,35,31,36,33,29,99,93,85,28.80,28.44,17,7,0,0.00
2013-3-5,33,28,24,30,25,22,93,90,85,29.15,28.80,24,14,0,0.00
2013-3-6,38,28,21,32,26,20,96,90,78,29.18,28.99,11,4,0,0.00
2013-3-7,50,35,25,41,32,24,96,88,71,29.03,28.85,18,11,0,0.00
2013-3-8,54,41,30,47,38,29,98,89,76,28.94,28.68,15,9,0,0.00
2013-3-9,54,45,36,53,45,36,100,98,96,28.68,28.34,19,9,0,0.00
2013-3-10,36,28,23,36,28,23,100,100,100,28.74,28.50,27,12,0,0.00
2013-3-11,31,24,20,29,24,20,100,97,89,28.78,28.66,16,6,0,0.00
2013-3-12,33,28,19,31,26,19,100,94,90,29.08,28.78,19,6,0,0.00
2013-3-13,35,26,16,31,24,16,99,92,79,29.20,29.00,11,4,0,0.00
2013-3-14,56,42,33,50,39,31,99,89,79,29.00,28.82,12,3,0,0.00
2013-3-15,56,45,37,52,43,37,100,93,81,28.84,28.52,9,2,0,0.00
2013-3-16,40,32,28,40,31,27,100,95,91,28.94,28.64,16,7,0,0.00
2013-3-17,43,33,25,40,31,24,100,91,82,28.94,28.53,16,9,0,0.00
2013-3-18,36,34,28,36,30,25,100,85,67,28.82,28.50,21,9,0,0.00
2013-3-19,50,32,21,38,27,20,94,82,56,29.08,28.82,18,4,0,0.00
2013-3-20,35,25,17,25,20,13,94,80,65,29.17,28.88,19,8,0,0.00
2013-3-21,32,27,22,27,22,20,92,83,70,28.88,28.69,11,6,0,0.00
2013-3-22,34,31,27,30,27,25,93,87,80,28.80,28.74,10,4,0,0.00
2013-3-23,36,32,29,32,30,28,100,93,82,28.88,28.79,11,4,0,0.00
2013-3-24,30,27,25,30,26,24,100,96,91,28.87,28.81,17,11,0,0.00
2013-3-25,30,27,23,28,26,22,100,96,90,29.10,28.86,18,11,0,0.00
2013-3-26,41,28,18,33,26,17,97,89,71,29.13,28.98,8,3,0,0.00
2013-3-27,51,39,28,41,34,27,95,83,67,29.02,28.93,15,8,0,0.00
2013-3-28,57,44,30,44,38,29,99,82,59,29.01,28.91,8,2,0,0.00
2013-3-29,66,51,34,48,42,34,99,76,49,28.99,28.81,20,6,0,0.00
2013-3-30,64,55,48,58,49,-100,100,85,60,28.84,28.70,12,5,0,0.00
2013-3-31,56,47,33,47,41,33,100,82,53,28.92,28.73,15,7,0,0.00
2013-4-1,40,31,22,33,27,21,100,85,61,29.10,28.92,12,6,0,0.00
2013-4-2,51,39,26,40,33,25,96,79,62,29.09,29.00,8,1,0,0.00
2013-4-3,56,43,32,41,35,30,92,76,56,29.10,28.96,14,7,0,0.00
2013-4-4,62,47,31,49,40,30,97,78,59,28.98,28.82,10,4,0,0.00
2013-4-5,68,51,34,51,42,33,96,75,51,28.94,28.49,20,9,0,0.00
2013-4-6,69,59,51,53,50,46,91,75,55,28.56,28.38,16,9,0,0.00
2013-4-7,71,55,39,58,50,38,98,84,55,28.63,28.43,14,4,0,0.00
2013-4-8,66,57,47,63,56,47,100,96,91,28.50,28.40,15,5,0,0.00
2013-4-9,62,45,34,61,45,34,100,99,95,28.76,28.37,24,11,0,0.00
2013-4-10,37,35,32,37,35,32,100,100,99,28.78,28.57,13,5,0,0.00
2013-4-11,36,33,30,36,32,30,100,99,95,28.60,28.44,14,5,0,0.00
2013-4-12,41,35,31,37,34,30,98,94,86,28.79,28.51,15,9,0,0.00
2013-4-13,53,41,30,47,38,29,98,89,80,28.80,28.47,18,7,0,0.00
2013-4-14,65,52,43,58,49,42,97,88,73,28.47,28.12,18,9,0,0.00
2013-4-15,46,40,32,43,37,31,98,87,78,28.85,28.45,13,7,0,0.00
2013-4-16,51,43,36,42,38,34,93,83,65,29.01,28.85,13,6,0,0.00
2013-4-17,47,42,37,42,41,37,100,96,84,28.94,28.55,15,7,0,0.00
2013-4-18,37,34,32,37,34,32,100,98,94,28.69,28.51,22,13,0,0.00
2013-4-19,45,36,29,36,32,27,95,83,66,28.87,28.65,17,10,0,0.00
2013-4-20,46,37,27,38,32,26,97,82,65,29.02,28.87,17,6,0,0.00
2013-4-21,66,53,44,55,47,38,99,79,60,28.92,28.75,20,9,0,0.00
2013-4-22,50,42,34,50,42,33,100,99,96,29.00,28.74,14,5,0,0.00
2013-4-23,38,33,30,34,30,28,97,91,80,29.03,28.93,18,9,0,0.00
2013-4-24,57,40,27,46,35,26,96,83,54,28.97,28.81,18,5,0,0.00
2013-4-25,68,50,34,50,42,33,98,76,49,29.02,28.78,19,6,0,0.00
2013-4-26,70,59,51,58,52,45,96,77,60,28.96,28.79,16,9,0,0.00
2013-4-27,68,55,44,59,52,44,100,91,69,28.98,28.72,11,5,0,0.00
2013-4-28,80,64,49,62,56,49,99,79,49,28.73,28.47,17,8,0,0.00
2013-4-29,82,66,54,64,58,52,93,77,50,28.56,28.30,8,3,0,0.00
2013-4-30,73,68,60,64,57,51,79,69,60,28.67,28.27,17,8,0,0.00
2013-5-1,60,41,33,52,40,33,100,97,74,29.18,28.67,18,9,0,0.00
2013-5-2,50,40,33,42,37,33,100,88,68,29.30,29.17,16,6,0,0.00
2013-5-3,48,40,32,41,36,31,97,85,71,29.17,28.83,15,7,0,0.00
2013-5-4,43,40,36,43,39,36,100,98,89,28.92,28.77,14,9,0,0.00
2013-5-5,55,47,42,53,46,42,100,97,92,28.95,28.88,12,6,0,0.00
2013-5-6,66,54,45,58,52,45,100,91,74,28.94,28.80,8,2,0,0.00
2013-5-7,71,59,46,61,56,46,100,90,69,28.85,28.72,12,3,0,0.00
2013-5-8,65,61,58,63,60,56,98,95,92,28.75,28.68,11,3,0,0.00
2013-5-9,65,59,55,62,58,55,100,97,91,28.79,28.65,13,4,0,0.00
2013-5-10,68,56,49,58,51,-100,99,88,65,28.88,28.78,10,5,0,0.00
2013-5-11,59,54,45,54,42,-100,97,69,49,29.04,28.81,26,8,0,0.00
2013-5-12,65,52,36,48,40,34,92,68,47,29.05,28.87,6,1,0,0.00
2013-5-13,82,66,51,62,54,43,89,66,43,28.88,28.61,21,8,0,0.00
2013-5-14,97,75,59,69,62,56,97,69,26,28.63,28.41,21,4,0,0.00
2013-5-15,82,73,62,58,54,50,72,52,36,28.71,28.57,19,6,0,0.00
2013-5-16,83,65,58,70,39,-100,93,75,62,28.66,28.54,13,4,0,0.00
2013-5-17,84,72,64,69,61,-100,95,80,59,28.67,28.59,15,5,0,0.00
2013-5-18,83,74,64,73,68,63,95,82,66,28.67,28.48,22,9,0,0.00
2013-5-19,74,66,60,70,65,59,99,94,82,28.55,28.30,22,6,0,0.00
2013-5-20,74,66,58,65,60,57,99,85,66,28.43,28.30,16,8,0,0.00
2013-5-21,63,59,55,60,56,53,96,90,81,28.52,28.39,15,8,0,0.00
2013-5-22,60,55,51,56,53,50,99,94,87,28.76,28.52,13,8,0,0.00
2013-5-23,71,60,52,58,54,51,98,81,55,28.98,28.76,17,6,0,0.00
2013-5-24,72,63,53,60,55,50,91,77,62,29.04,28.79,19,10,0,0.00
2013-5-25,77,67,57,73,64,56,100,89,72,28.89,28.72,21,8,0,0.00
2013-5-26,79,69,64,75,68,63,98,94,88,28.78,28.61,16,9,0,0.00
2013-5-27,75,67,60,71,65,60,100,94,85,28.67,28.39,24,5,0,0.00
2013-5-28,77,70,61,70,66,61,99,89,70,28.53,28.39,15,3,0,0.00
2013-5-29,74,70,64,72,68,64,99,94,89,28.50,28.34,26,11,0,0.00
2013-5-30,75,68,61,69,65,59,97,90,81,28.40,28.30,16,8,0,0.00
2013-5-31,78,68,58,63,58,55,96,74,51,28.51,28.40,19,8,0,0.00
2013-6-1,64,58,54,59,56,52,96,91,76,28.81,28.46,21,10,0,0.00
2013-6-2,67,58,52,57,53,49,98,82,66,28.91,28.77,13,4,0,0.00
2013-6-3,73,63,53,62,57,52,95,80,62,28.82,28.60,23,9,0,0.00
2013-6-4,71,66,59,68,64,58,98,93,83,28.78,28.64,16,5,0,0.00
2013-6-5,72,64,58,65,58,55,99,81,63,28.84,28.74,12,4,0,0.00
2013-6-6,71,64,57,62,58,55,94,81,64,28.79,28.74,14,4,0,0.00
2013-6-7,72,63,53,61,57,52,97,83,65,28.82,28.67,10,2,0,0.00
2013-6-8,68,62,59,66,60,56,99,93,80,28.67,28.44,16,8,0,0.00
2013-6-9,69,64,61,65,62,60,99,93,86,28.63,28.49,14,7,0,0.00
2013-6-10,77,67,55,71,64,55,99,92,74,28.68,28.55,13,3,0,0.00
2013-6-11,85,76,68,77,71,66,95,85,68,28.62,28.47,14,5,0,0.00
2013-6-12,85,76,64,77,70,59,92,81,65,28.82,28.45,18,8,0,0.00
2013-6-13,76,67,58,66,62,57,96,84,63,28.88,28.76,10,3,0,0.00
2013-6-14,87,73,64,78,69,62,96,87,75,28.81,28.53,20,9,0,0.00
2013-6-15,80,73,65,74,70,64,98,91,76,28.74,28.59,12,4,0,0.00
2013-6-16,84,74,66,73,68,65,100,85,56,28.78,28.72,9,2,0,0.00
2013-6-17,83,72,64,68,65,62,94,79,57,28.81,28.73,7,1,0,0.00
2013-6-18,80,71,66,69,64,62,93,82,60,28.87,28.76,0,0,0,0.00
2013-6-19,83,74,66,73,68,64,94,82,66,28.79,28.66,16,7,0,0.00
2013-6-20,87,76,71,79,72,69,93,86,74,28.73,28.59,18,10,0,0.00
2013-6-22,87,82,69,78,74,67,94,76,68,28.76,28.56,23,12,0,0.00
2013-6-23,80,73,65,74,70,64,98,91,81,28.70,28.51,19,4,0,0.00
2013-6-24,81,76,66,77,73,65,97,93,86,28.69,28.48,15,6,0,0.00
2013-6-25,84,78,72,80,75,70,96,88,77,28.58,28.45,16,4,0,0.00
2013-6-26,90,80,74,77,73,70,97,80,53,28.68,28.46,11,5,0,0.00
2013-6-27,84,75,70,75,71,68,96,89,69,28.79,28.66,8,1,0,0.00
2013-6-28,83,74,69,71,68,65,95,84,56,28.78,28.70,17,6,0,0.00
2013-6-29,80,72,66,66,64,62,88,76,60,28.74,28.68,24,7,0,0.00
2013-6-30,78,68,58,64,61,57,97,81,58,28.89,28.73,13,2,0,0.00
2013-7-1,82,66,57,64,59,55,94,82,53,28.97,28.89,6,1,0,0.00
2013-7-2,80,67,60,68,63,59,96,87,61,28.95,28.84,12,1,0,0.00
2013-7-3,83,69,60,70,64,59,99,85,54,28.85,28.74,7,1,0,0.00
2013-7-4,81,68,63,68,63,60,92,86,63,28.77,28.71,11,6,0,0.00
2013-7-5,85,75,68,72,68,64,91,80,65,28.70,28.61,17,8,0,0.00
2013-7-6,85,77,71,75,70,67,89,81,69,28.65,28.58,17,9,0,0.00
2013-7-7,90,81,73,80,73,68,88,78,63,28.70,28.60,14,5,0,0.00
2013-7-8,86,79,74,79,74,-100,97,89,75,28.74,28.68,7,2,0,0.00
2013-7-9,93,83,75,80,77,73,94,82,63,28.74,28.63,8,3,0,0.00
2013-7-10,82,75,68,75,68,-100,96,81,64,28.88,28.74,10,3,0,0.00
2013-7-11,83,73,67,70,68,64,94,83,64,28.88,28.74,15,5,0,0.00
2013-7-12,88,78,69,78,71,66,91,80,71,28.77,28.68,19,11,0,0.00
2013-7-13,88,80,74,78,74,69,87,80,69,28.74,28.69,20,11,0,0.00
2013-7-14,85,76,71,73,69,66,89,81,60,28.93,28.74,17,10,0,0.00
2013-7-15,86,77,64,75,71,63,95,82,66,28.97,28.88,11,4,0,0.00
2013-7-16,88,77,71,76,72,69,95,86,61,29.03,28.94,12,2,0,0.00
2013-7-17,90,81,73,77,74,71,95,81,61,29.07,28.93,9,3,0,0.00
2013-7-18,91,81,73,76,74,71,94,81,59,28.94,28.71,14,7,0,0.00
2013-7-19,92,80,74,76,73,71,89,78,51,28.73,28.67,9,3,0,0.00
2013-7-20,86,75,67,71,67,-100,93,79,56,28.79,28.64,12,1,0,0.00
2013-7-21,88,78,70,77,73,69,96,85,66,28.71,28.55,12,3,0,0.00
2013-7-22,93,80,70,79,74,69,97,82,63,28.64,28.54,9,3,0,0.00
2013-7-23,80,73,65,71,68,64,97,84,68,28.79,28.63,9,3,0,0.00
2013-7-24,81,71,60,70,66,59,97,84,68,28.86,28.76,5,0,0,0.00
2013-7-25,81,74,70,73,70,67,97,88,70,28.83,28.75,15,5,0,0.00
2013-7-26,76,70,61,70,64,59,99,84,64,28.90,28.75,19,5,0,0.00
2013-7-27,71,60,54,59,56,53,97,88,62,28.92,28.80,17,2,0,0.00
2013-7-28,74,59,50,61,55,49,99,87,60,28.86,28.80,5,0,0,0.00
2013-7-29,66,64,60,65,61,56,99,91,77,28.84,28.79,14,5,0,0.00
2013-7-30,75,69,64,71,68,64,100,95,87,28.90,28.80,8,1,0,0.00
2013-7-31,83,73,61,73,69,61,100,87,70,28.92,28.82,5,0,0,0.00
2013-8-1,83,73,63,74,70,63,99,91,70,28.88,28.64,20,6,0,0.00
2013-8-2,82,73,67,75,70,65,98,90,76,28.80,28.66,16,4,0,0.00
2013-8-3,76,70,63,67,65,62,95,83,71,28.95,28.80,12,3,0,0.00
2013-8-4,77,70,60,71,65,58,95,87,76,28.96,28.79,14,5,0,0.00
2013-8-5,84,75,69,79,73,68,99,94,82,28.82,28.64,12,3,0,0.00
2013-8-6,86,77,68,80,74,67,99,92,78,28.70,28.58,12,3,0,0.00
2013-8-7,81,74,66,73,69,65,97,84,67,28.78,28.63,8,2,0,0.00
2013-8-8,75,70,66,71,68,65,95,91,82,28.82,28.74,8,1,0,0.00
2013-8-9,78,72,63,73,68,62,100,88,69,28.92,28.79,10,2,0,0.00
2013-8-10,81,71,60,72,67,60,99,88,73,28.98,28.85,10,3,0,0.00
2013-8-11,84,74,64,75,70,63,96,87,72,28.89,28.76,12,6,0,0.00
2013-8-21,90,80,71,79,74,69,95,84,69,28.77,28.71,15,7,0,0.00
2013-8-22,83,76,70,75,72,68,96,88,75,28.88,28.74,10,3,0,0.00
2013-8-23,87,78,71,77,73,70,96,86,66,28.85,28.74,15,6,0,0.00
2013-8-24,89,81,76,79,73,-100,91,81,71,28.83,28.76,17,10,0,0.00
2013-8-25,93,83,75,79,76,73,93,81,63,28.88,28.80,14,9,0,0.00
2013-8-26,94,83,74,79,76,72,94,79,61,28.85,28.72,15,8,0,0.00
2013-8-27,93,81,75,78,74,72,90,80,61,28.73,28.69,15,8,0,0.00
2013-9-24,70,65,58,64,61,57,97,89,82,28.69,28.50,8,3,0,0.00
2013-9-25,74,61,51,66,59,51,100,94,75,28.69,28.52,12,3,0,0.00
2013-9-26,77,68,63,68,64,61,96,89,68,28.59,28.54,18,12,0,0.00
2013-9-27,78,73,70,67,67,66,88,80,68,28.60,28.53,18,13,0,0.00
2013-9-28,75,62,54,68,56,-100,99,85,67,28.82,28.46,15,8,0,0.00
2013-9-29,66,52,48,55,50,47,96,92,67,28.82,28.80,15,4,0,0.00
2013-9-30,68,57,54,61,54,52,96,91,79,28.64,28.53,15,8,0,0.00
2013-10-18,50,42,35,43,39,34,98,88,69,28.90,28.77,10,3,0,0.00
2013-10-19,61,40,34,47,36,-100,99,91,61,28.77,28.59,9,2,0,0.00
2013-10-20,64,51,42,51,46,40,94,84,60,28.79,28.49,16,4,0,0.00
2013-10-21,54,42,32,46,39,32,100,92,72,28.87,28.71,8,1,0,0.00
2013-10-22,47,44,40,46,42,38,98,93,87,28.89,28.64,13,4,0,0.00
2013-10-23,49,40,33,46,39,33,100,96,88,28.96,28.81,9,2,0,0.00
2013-10-24,46,38,33,39,36,32,97,91,68,29.16,28.96,10,4,0,0.00